createdAt,value
2019-05-18T00:01:33.444Z,14.00
2019-05-18T00:04:01.857Z,14.00
2019-05-18T00:06:30.300Z,14.00
2019-05-18T00:08:58.690Z,14.00
2019-05-18T00:11:27.409Z,14.00
2019-05-18T00:13:56.089Z,13.90
2019-05-18T00:16:24.475Z,13.90
2019-05-18T00:18:52.889Z,13.80
2019-05-18T00:21:24.580Z,13.90
2019-05-18T00:23:52.968Z,13.80
2019-05-18T00:26:21.349Z,13.80
2019-05-18T00:28:49.747Z,13.80
2019-05-18T00:31:18.129Z,13.80
2019-05-18T00:33:46.525Z,13.80
2019-05-18T00:36:14.920Z,13.80
2019-05-18T00:38:43.308Z,13.80
2019-05-18T00:41:11.700Z,13.80
2019-05-18T00:43:40.101Z,13.70
2019-05-18T00:46:08.482Z,13.70
2019-05-18T00:48:36.881Z,13.50
2019-05-18T00:51:05.252Z,13.50
2019-05-18T00:53:33.658Z,13.50
2019-05-18T00:56:02.094Z,13.50
2019-05-18T00:58:30.473Z,13.40
2019-05-18T01:00:58.860Z,13.40
2019-05-18T01:03:27.318Z,13.40
2019-05-18T01:05:55.705Z,13.40
2019-05-18T01:08:24.366Z,13.40
2019-05-18T01:10:52.770Z,13.20
2019-05-18T01:13:21.138Z,13.30
2019-05-18T01:15:49.526Z,13.30
2019-05-18T01:18:17.912Z,13.30
2019-05-18T01:20:46.465Z,13.30
2019-05-18T01:23:14.885Z,13.40
2019-05-18T01:25:43.258Z,13.40
2019-05-18T01:28:11.632Z,13.40
2019-05-18T01:30:40.020Z,13.40
2019-05-18T01:33:08.402Z,13.40
2019-05-18T01:35:37.042Z,13.40
2019-05-18T01:38:05.492Z,13.40
2019-05-18T01:40:33.923Z,13.40
2019-05-18T01:43:02.314Z,13.40
2019-05-18T01:45:30.701Z,13.30
2019-05-18T01:48:12.768Z,13.30
2019-05-18T01:50:29.470Z,13.30
2019-05-18T01:52:57.860Z,13.30
2019-05-18T01:55:26.252Z,13.30
2019-05-18T01:57:54.658Z,13.30
2019-05-18T02:00:23.099Z,13.30
2019-05-18T02:02:51.785Z,13.20
2019-05-18T02:05:20.189Z,13.10
2019-05-18T02:07:48.568Z,13.10
2019-05-18T02:10:17.465Z,13.10
2019-05-18T02:12:46.120Z,13.10
2019-05-18T02:15:14.782Z,13.10
2019-05-18T02:17:43.168Z,13.00
2019-05-18T02:20:11.695Z,13.00
2019-05-18T02:22:40.079Z,13.00
2019-05-18T02:25:09.107Z,13.00
2019-05-18T02:27:37.492Z,13.00
2019-05-18T02:30:07.650Z,12.90
2019-05-18T02:32:36.164Z,12.90
2019-05-18T02:35:05.886Z,12.90
2019-05-18T02:37:34.533Z,12.90
2019-05-18T02:40:03.656Z,12.80
2019-05-18T02:42:32.057Z,12.80
2019-05-18T02:45:00.536Z,12.80
2019-05-18T02:47:28.925Z,12.70
2019-05-18T02:49:57.320Z,12.70
2019-05-18T02:52:25.713Z,12.60
2019-05-18T02:54:54.191Z,12.60
2019-05-18T02:57:22.565Z,12.70
2019-05-18T02:59:50.948Z,12.70
2019-05-18T03:02:19.359Z,12.70
2019-05-18T03:04:47.750Z,12.60
2019-05-18T03:07:16.175Z,12.60
2019-05-18T03:09:44.625Z,12.50
2019-05-18T03:12:13.289Z,12.50
2019-05-18T03:14:41.668Z,12.50
2019-05-18T03:17:10.110Z,12.50
2019-05-18T03:19:38.489Z,12.50
2019-05-18T03:22:06.886Z,12.40
2019-05-18T03:24:35.275Z,12.40
2019-05-18T03:27:03.660Z,12.40
2019-05-18T03:29:32.065Z,12.40
2019-05-18T03:32:00.450Z,12.40
2019-05-18T03:34:28.833Z,12.30
2019-05-18T03:36:57.251Z,12.30
2019-05-18T03:39:25.626Z,12.30
2019-05-18T03:41:54.032Z,12.30
2019-05-18T03:44:22.413Z,12.20
2019-05-18T03:46:51.124Z,12.20
2019-05-18T03:49:26.770Z,12.20
2019-05-18T03:51:49.626Z,12.20
2019-05-18T03:54:18.017Z,12.20
2019-05-18T03:56:46.415Z,12.10
2019-05-18T03:59:15.077Z,12.10
2019-05-18T04:01:43.485Z,12.10
2019-05-18T04:04:11.881Z,12.10
2019-05-18T04:06:40.273Z,12.10
2019-05-18T04:09:08.728Z,12.10
2019-05-18T04:11:37.117Z,12.00
2019-05-18T04:14:08.319Z,12.00
2019-05-18T04:16:35.618Z,11.90
2019-05-18T04:19:04.085Z,11.90
2019-05-18T04:21:32.470Z,11.80
2019-05-18T04:24:00.864Z,11.80
2019-05-18T04:26:29.931Z,11.80
2019-05-18T04:28:58.356Z,11.90
2019-05-18T04:31:26.744Z,11.90
2019-05-18T04:33:55.145Z,11.90
2019-05-18T04:36:23.520Z,12.00
2019-05-18T04:38:51.912Z,12.00
2019-05-18T04:41:20.306Z,12.00
2019-05-18T04:43:48.697Z,12.10
2019-05-18T04:46:17.316Z,12.10
2019-05-18T04:48:45.809Z,12.20
2019-05-18T04:51:14.181Z,12.10
2019-05-18T04:53:42.824Z,12.10
2019-05-18T04:56:11.204Z,12.20
2019-05-18T04:58:39.885Z,12.20
2019-05-18T05:01:08.270Z,12.10
2019-05-18T05:03:36.659Z,12.00
2019-05-18T05:06:05.339Z,12.00
2019-05-18T05:08:33.723Z,12.00
2019-05-18T05:11:02.104Z,12.10
2019-05-18T05:13:30.494Z,12.10
2019-05-18T05:15:58.876Z,12.00
2019-05-18T05:18:27.273Z,12.10
2019-05-18T05:20:55.654Z,12.20
2019-05-18T05:23:24.299Z,12.30
2019-05-18T05:25:52.680Z,12.30
2019-05-18T05:28:21.089Z,12.30
2019-05-18T05:30:49.476Z,12.40
2019-05-18T05:33:17.880Z,12.40
2019-05-18T05:35:46.277Z,12.40
2019-05-18T05:38:14.661Z,12.40
2019-05-18T05:40:43.055Z,12.50
2019-05-18T05:43:11.440Z,12.60
2019-05-18T05:45:39.839Z,12.60
2019-05-18T05:48:08.225Z,12.60
2019-05-18T05:50:36.877Z,12.70
2019-05-18T05:53:05.450Z,12.70
2019-05-18T05:55:33.843Z,12.80
2019-05-18T05:58:02.221Z,12.90
2019-05-18T06:00:30.611Z,12.90
2019-05-18T06:02:58.992Z,12.90
2019-05-18T06:05:27.397Z,12.90
2019-05-18T06:07:55.774Z,12.80
2019-05-18T06:10:24.169Z,12.80
2019-05-18T06:12:52.548Z,12.90
2019-05-18T06:15:20.964Z,12.90
2019-05-18T06:17:49.355Z,13.00
2019-05-18T06:20:17.759Z,13.00
2019-05-18T06:22:46.311Z,13.10
2019-05-18T06:25:15.148Z,13.20
2019-05-18T06:27:43.520Z,13.20
2019-05-18T06:30:13.165Z,13.30
2019-05-18T06:32:41.554Z,13.30
2019-05-18T06:35:10.060Z,13.40
2019-05-18T06:37:38.435Z,13.40
2019-05-18T06:40:08.076Z,13.50
2019-05-18T06:42:37.180Z,13.50
2019-05-18T06:45:09.354Z,13.50
2019-05-18T06:47:37.737Z,13.60
2019-05-18T06:50:12.434Z,13.70
2019-05-18T06:52:39.812Z,13.70
2019-05-18T06:55:08.281Z,13.80
2019-05-18T06:57:37.212Z,13.90
2019-05-18T07:00:10.540Z,13.90
2019-05-18T07:02:38.925Z,14.00
2019-05-18T07:05:07.508Z,14.00
2019-05-18T07:07:35.913Z,14.10
2019-05-18T07:10:06.682Z,14.20
2019-05-18T07:12:35.075Z,14.30
2019-05-18T07:15:05.037Z,14.40
2019-05-18T07:17:34.698Z,14.40
2019-05-18T07:20:05.842Z,14.50
2019-05-18T07:22:34.368Z,14.60
2019-05-18T07:25:02.830Z,14.60
2019-05-18T07:27:31.276Z,14.70
2019-05-18T07:29:59.668Z,14.70
2019-05-18T07:32:28.071Z,14.80
2019-05-18T07:34:56.528Z,14.90
2019-05-18T07:37:24.963Z,15.00
2019-05-18T07:39:53.399Z,15.20
2019-05-18T07:42:21.805Z,15.40
2019-05-18T07:44:50.192Z,15.50
2019-05-18T07:47:18.596Z,15.70
2019-05-18T07:49:47.046Z,15.70
2019-05-18T07:52:17.253Z,15.80
2019-05-18T07:54:45.608Z,15.90
2019-05-18T07:57:14.015Z,16.00
2019-05-18T07:59:42.402Z,16.10
2019-05-18T08:02:10.826Z,16.20
2019-05-18T08:04:39.870Z,16.30
2019-05-18T08:07:08.302Z,16.30
2019-05-18T08:09:36.683Z,16.40
2019-05-18T08:12:05.099Z,16.50
2019-05-18T08:14:34.285Z,16.50
2019-05-18T08:17:02.672Z,16.60
2019-05-18T08:19:31.056Z,16.70
2019-05-18T08:21:59.498Z,16.80
2019-05-18T08:24:27.883Z,16.90
2019-05-18T08:26:56.280Z,17.10
2019-05-18T08:29:24.676Z,17.40
2019-05-18T08:31:53.456Z,17.50
2019-05-18T08:34:21.982Z,17.70
2019-05-18T08:36:50.364Z,17.90
2019-05-18T08:39:21.812Z,18.30
2019-05-18T08:41:56.360Z,18.70
2019-05-18T08:44:27.945Z,19.10
2019-05-18T08:46:59.257Z,19.50
2019-05-18T08:49:37.403Z,19.80
2019-05-18T08:52:08.629Z,20.40
2019-05-18T08:54:37.121Z,20.50
2019-05-18T08:57:05.508Z,20.80
2019-05-18T08:59:33.905Z,21.20
2019-05-18T09:02:02.611Z,21.40
2019-05-18T09:04:31.072Z,21.50
2019-05-18T09:07:00.272Z,21.70
2019-05-18T09:09:28.699Z,22.10
2019-05-18T09:11:57.443Z,21.50
2019-05-18T09:14:25.860Z,21.80
2019-05-18T09:16:54.240Z,22.40
2019-05-18T09:22:03.963Z,23.40
2019-05-18T09:24:32.374Z,23.20
2019-05-18T09:27:00.748Z,23.40
2019-05-18T09:29:29.144Z,23.90
2019-05-18T09:31:57.528Z,24.30
2019-05-18T09:34:26.001Z,24.30
2019-05-18T09:36:54.370Z,24.40
2019-05-18T09:39:22.775Z,24.50
2019-05-18T09:41:51.202Z,24.70
2019-05-18T09:44:19.633Z,25.00
2019-05-18T09:46:48.079Z,25.50
2019-05-18T09:49:17.381Z,25.70
2019-05-18T09:51:46.069Z,25.70
2019-05-18T09:54:14.468Z,25.40
2019-05-18T09:56:42.856Z,24.30
2019-05-18T09:59:11.253Z,23.90
2019-05-18T10:01:45.656Z,24.80
2019-05-18T10:04:14.519Z,25.40
2019-05-18T10:06:42.929Z,25.50
2019-05-18T10:09:11.315Z,26.10
2019-05-18T10:11:39.686Z,26.80
2019-05-18T10:14:08.073Z,25.70
2019-05-18T10:16:36.469Z,25.90
2019-05-18T10:19:04.860Z,25.50
2019-05-18T10:21:33.601Z,25.90
2019-05-18T10:24:01.990Z,25.90
2019-05-18T10:26:30.462Z,26.10
2019-05-18T10:28:59.004Z,26.10
2019-05-18T10:31:27.423Z,25.40
2019-05-18T10:33:55.804Z,25.30
2019-05-18T10:36:24.207Z,25.70
2019-05-18T10:38:52.592Z,25.70
2019-05-18T10:41:20.994Z,25.30
2019-05-18T10:43:51.572Z,25.60
2019-05-18T10:46:19.994Z,25.30
2019-05-18T10:48:48.748Z,24.70
2019-05-18T10:51:17.144Z,24.90
2019-05-18T10:53:45.529Z,25.10
2019-05-18T10:56:13.923Z,25.40
2019-05-18T10:58:44.452Z,25.40
2019-05-18T11:01:12.839Z,25.50
2019-05-18T11:03:41.226Z,25.20
2019-05-18T11:06:09.987Z,24.10
2019-05-18T11:08:38.581Z,24.80
2019-05-18T11:11:08.604Z,25.20
2019-05-18T11:13:37.380Z,25.30
2019-05-18T11:16:05.791Z,25.80
2019-05-18T11:18:34.173Z,26.00
2019-05-18T11:21:02.801Z,26.10
2019-05-18T11:23:42.875Z,26.30
2019-05-18T11:26:00.741Z,26.10
2019-05-18T11:28:29.141Z,26.10
2019-05-18T11:31:00.613Z,26.00
2019-05-18T11:33:29.003Z,25.60
2019-05-18T11:35:57.400Z,26.30
2019-05-18T11:38:26.080Z,26.10
2019-05-18T11:40:54.473Z,27.00
2019-05-18T11:43:22.852Z,27.10
2019-05-18T11:45:51.236Z,26.30
2019-05-18T11:48:19.869Z,25.30
2019-05-18T11:50:48.257Z,26.10
2019-05-18T11:53:16.656Z,27.00
2019-05-18T11:55:45.051Z,27.10
2019-05-18T11:58:13.468Z,26.70
2019-05-18T12:00:42.623Z,27.20
2019-05-18T12:03:11.133Z,27.30
2019-05-18T12:05:41.893Z,26.50
2019-05-18T12:08:10.366Z,26.50
2019-05-18T12:10:38.755Z,26.60
2019-05-18T12:13:07.220Z,27.00
2019-05-18T12:15:35.989Z,26.40
2019-05-18T12:18:04.815Z,26.70
2019-05-18T12:20:38.390Z,27.60
2019-05-18T12:23:08.354Z,27.90
2019-05-18T12:25:36.912Z,26.60
2019-05-18T12:28:05.345Z,28.10
2019-05-18T12:30:33.772Z,27.70
2019-05-18T12:33:02.176Z,27.90
2019-05-18T12:35:30.808Z,27.70
2019-05-18T12:37:59.309Z,28.60
2019-05-18T12:40:27.756Z,29.00
2019-05-18T12:42:56.232Z,29.10
2019-05-18T12:45:25.339Z,29.40
2019-05-18T12:47:53.745Z,29.60
2019-05-18T12:50:22.763Z,29.70
2019-05-18T12:52:51.196Z,30.20
2019-05-18T12:55:19.826Z,30.50
2019-05-18T12:57:48.212Z,29.10
2019-05-18T13:00:17.742Z,29.60
2019-05-18T13:02:48.093Z,29.60
2019-05-18T13:05:16.926Z,29.80
2019-05-18T13:07:45.360Z,29.50
2019-05-18T13:10:15.659Z,29.50
2019-05-18T13:12:44.039Z,29.40
2019-05-18T13:15:12.801Z,30.10
2019-05-18T13:17:41.189Z,30.40
2019-05-18T13:20:11.135Z,29.70
2019-05-18T13:22:39.542Z,29.20
2019-05-18T13:25:08.771Z,28.20
2019-05-18T13:27:39.719Z,29.00
2019-05-18T13:30:08.051Z,29.40
2019-05-18T13:32:36.526Z,29.90
2019-05-18T13:35:06.672Z,30.20
2019-05-18T13:37:34.283Z,30.00
2019-05-18T13:40:02.684Z,28.40
2019-05-18T13:42:31.071Z,29.00
2019-05-18T13:44:59.480Z,29.80
2019-05-18T13:47:27.864Z,29.60
2019-05-18T13:49:58.367Z,29.40
2019-05-18T13:52:26.655Z,29.50
2019-05-18T13:55:03.711Z,29.60
2019-05-18T13:57:24.448Z,30.10
2019-05-18T13:59:52.852Z,29.80
2019-05-18T14:02:21.236Z,28.70
2019-05-18T14:04:49.616Z,29.00
2019-05-18T14:07:18.008Z,28.60
2019-05-18T14:09:46.456Z,28.90
2019-05-18T14:12:14.851Z,28.90
2019-05-18T14:14:43.523Z,29.10
2019-05-18T14:17:11.918Z,29.30
2019-05-18T14:19:40.314Z,29.00
2019-05-18T14:22:08.702Z,28.30
2019-05-18T14:24:37.351Z,28.30
2019-05-18T14:27:05.736Z,28.50
2019-05-18T14:29:34.139Z,28.90
2019-05-18T14:32:02.532Z,28.60
2019-05-18T14:34:30.936Z,28.80
2019-05-18T14:36:59.323Z,28.70
2019-05-18T14:39:27.706Z,28.60
2019-05-18T14:41:56.113Z,28.80
2019-05-18T14:44:24.480Z,28.60
2019-05-18T14:46:52.976Z,28.10
2019-05-18T14:49:21.336Z,28.40
2019-05-18T14:51:49.765Z,28.20
2019-05-18T14:54:18.628Z,27.90
2019-05-18T14:56:47.036Z,27.40
2019-05-18T14:59:15.451Z,27.40
2019-05-18T15:01:43.847Z,27.50
2019-05-18T15:04:13.961Z,27.80
2019-05-18T15:06:42.362Z,27.90
2019-05-18T15:09:11.060Z,28.00
2019-05-18T15:11:39.475Z,27.90
2019-05-18T15:14:08.436Z,28.00
2019-05-18T15:16:36.923Z,27.80
2019-05-18T15:19:05.296Z,27.60
2019-05-18T15:21:33.713Z,28.00
2019-05-18T15:24:02.378Z,28.00
2019-05-18T15:26:31.156Z,27.70
2019-05-18T15:28:59.559Z,28.00
2019-05-18T15:31:27.958Z,27.50
2019-05-18T15:33:56.362Z,26.60
2019-05-18T15:36:24.732Z,26.30
2019-05-18T15:38:53.123Z,26.40
2019-05-18T15:41:21.848Z,26.40
2019-05-18T15:43:50.244Z,26.10
2019-05-18T15:46:18.918Z,25.70
2019-05-18T15:48:47.814Z,25.50
2019-05-18T15:51:16.495Z,24.60
2019-05-18T15:53:44.933Z,24.70
2019-05-18T15:56:13.324Z,25.10
2019-05-18T15:58:41.721Z,24.70
2019-05-18T16:01:10.133Z,24.80
2019-05-18T16:03:38.507Z,25.00
2019-05-18T16:06:06.893Z,24.90
2019-05-18T16:08:35.290Z,24.00
2019-05-18T16:11:03.676Z,23.30
2019-05-18T16:13:32.083Z,22.70
2019-05-18T16:16:00.525Z,22.70
2019-05-18T16:18:28.915Z,22.10
2019-05-18T16:20:57.304Z,21.80
2019-05-18T16:23:25.697Z,21.70
2019-05-18T16:25:54.071Z,21.60
2019-05-18T16:28:22.466Z,21.20
2019-05-18T16:30:50.882Z,20.90
2019-05-18T16:33:19.276Z,20.90
2019-05-18T16:35:47.655Z,20.70
2019-05-18T16:38:16.045Z,20.60
2019-05-18T16:40:44.440Z,20.30
2019-05-18T16:43:12.843Z,20.20
2019-05-18T16:45:41.272Z,20.30
2019-05-18T16:48:09.704Z,20.30
2019-05-18T16:50:38.101Z,20.20
2019-05-18T16:53:06.565Z,19.70
2019-05-18T16:55:34.978Z,19.70
2019-05-18T16:58:03.722Z,19.70
2019-05-18T17:00:32.149Z,19.90
2019-05-18T17:03:00.548Z,20.10
2019-05-18T17:05:29.008Z,19.90
2019-05-18T17:07:57.412Z,20.00
2019-05-18T17:10:25.791Z,20.10
2019-05-18T17:12:54.182Z,19.80
2019-05-18T17:15:22.640Z,19.80
2019-05-18T17:17:51.076Z,19.80
2019-05-18T17:20:20.037Z,19.80
2019-05-18T17:22:48.451Z,19.90
2019-05-18T17:25:17.304Z,20.00
2019-05-18T17:27:45.681Z,19.60
2019-05-18T17:30:14.623Z,19.40
2019-05-18T17:32:43.004Z,19.40
2019-05-18T17:35:11.852Z,19.40
2019-05-18T17:37:40.236Z,19.60
2019-05-18T17:40:09.071Z,19.60
2019-05-18T17:42:37.457Z,19.70
2019-05-18T17:45:10.313Z,19.80
2019-05-18T17:47:38.724Z,19.80
2019-05-18T17:50:08.259Z,20.00
2019-05-18T17:52:36.635Z,20.30
2019-05-18T17:55:06.576Z,20.40
2019-05-18T17:57:34.964Z,20.30
2019-05-18T18:00:08.043Z,20.80
2019-05-18T18:02:36.500Z,20.70
2019-05-18T18:05:08.089Z,20.80
2019-05-18T18:07:36.491Z,20.90
2019-05-18T18:10:06.515Z,20.80
2019-05-18T18:12:34.923Z,20.50
2019-05-18T18:15:03.639Z,20.60
2019-05-18T18:17:32.013Z,20.60
2019-05-18T18:20:00.403Z,20.50
2019-05-18T18:22:28.793Z,20.10
2019-05-18T18:24:57.200Z,20.00
2019-05-18T18:27:29.526Z,19.80
2019-05-18T18:29:55.966Z,19.60
2019-05-18T18:32:24.762Z,19.60
2019-05-18T18:34:53.161Z,19.50
2019-05-18T18:37:21.622Z,19.60
2019-05-18T18:39:50.023Z,19.80
2019-05-18T18:42:18.507Z,20.10
2019-05-18T18:44:46.908Z,19.90
2019-05-18T18:47:15.298Z,19.70
2019-05-18T18:49:43.689Z,19.50
2019-05-18T18:52:12.075Z,19.30
2019-05-18T18:54:40.456Z,19.20
2019-05-18T18:57:08.851Z,19.00
2019-05-18T18:59:37.280Z,19.00
2019-05-18T19:02:05.942Z,18.80
2019-05-18T19:04:34.332Z,18.80
2019-05-18T19:07:02.727Z,18.70
2019-05-18T19:09:33.293Z,18.50
2019-05-18T19:12:00.887Z,18.60
2019-05-18T19:14:29.596Z,18.50
2019-05-18T19:16:58.260Z,18.40
2019-05-18T19:19:26.627Z,18.30
2019-05-18T19:21:55.297Z,18.20
2019-05-18T19:24:23.679Z,18.10
2019-05-18T19:26:52.120Z,18.10
2019-05-18T19:29:20.561Z,18.20
2019-05-18T19:31:48.965Z,18.00
2019-05-18T19:34:17.417Z,18.00
2019-05-18T19:36:45.831Z,18.00
2019-05-18T19:39:14.214Z,18.00
2019-05-18T19:41:42.615Z,17.80
2019-05-18T19:44:11.003Z,17.70
2019-05-18T19:46:39.393Z,17.80
2019-05-18T19:49:07.777Z,17.70
2019-05-18T19:51:36.183Z,17.60
2019-05-18T19:54:04.602Z,17.60
2019-05-18T19:56:39.065Z,17.60
2019-05-18T19:59:03.373Z,17.60
2019-05-18T20:01:32.085Z,17.50
2019-05-18T20:04:00.475Z,17.60
2019-05-18T20:06:29.178Z,17.60
2019-05-18T20:08:57.620Z,17.60
2019-05-18T20:11:26.013Z,17.60
2019-05-18T20:13:54.428Z,17.50
2019-05-18T20:16:22.861Z,17.50
2019-05-18T20:18:51.255Z,17.50
2019-05-18T20:21:19.633Z,17.40
2019-05-18T20:23:48.020Z,17.40
2019-05-18T20:26:16.416Z,17.40
2019-05-18T20:28:47.455Z,17.30
2019-05-18T20:31:15.902Z,17.20
2019-05-18T20:33:44.290Z,17.00
2019-05-18T20:36:12.685Z,16.80
2019-05-18T20:38:41.072Z,16.80
2019-05-18T20:41:10.795Z,16.70
2019-05-18T20:43:39.183Z,16.70
2019-05-18T20:46:10.323Z,16.50
2019-05-18T20:48:38.731Z,16.50
2019-05-18T20:51:07.116Z,16.60
2019-05-18T20:53:36.885Z,16.70
2019-05-18T20:56:05.283Z,16.70
2019-05-18T20:58:40.221Z,16.70
2019-05-18T21:01:03.825Z,16.70
2019-05-18T21:03:32.212Z,16.70
2019-05-18T21:06:00.598Z,16.70
2019-05-18T21:08:29.006Z,16.70
2019-05-18T21:10:57.384Z,16.60
2019-05-18T21:13:25.784Z,16.60
2019-05-18T21:15:54.249Z,16.60
2019-05-18T21:18:22.632Z,16.60
2019-05-18T21:20:51.013Z,16.60
2019-05-18T21:23:19.448Z,16.60
2019-05-18T21:25:47.852Z,16.60
2019-05-18T21:28:16.240Z,16.60
2019-05-18T21:30:44.616Z,16.60
2019-05-18T21:33:13.005Z,16.60
2019-05-18T21:35:41.396Z,16.60
2019-05-18T21:38:09.788Z,16.60
2019-05-18T21:40:38.172Z,16.60
2019-05-18T21:43:06.563Z,16.50
2019-05-18T21:45:34.948Z,16.50
2019-05-18T21:48:03.337Z,16.40
2019-05-18T21:50:31.742Z,16.40
2019-05-18T21:53:00.128Z,16.40
2019-05-18T21:55:28.516Z,16.40
2019-05-18T21:57:56.906Z,16.40
2019-05-18T22:00:25.776Z,16.40
2019-05-18T22:02:54.160Z,16.40
2019-05-18T22:05:22.555Z,16.30
2019-05-18T22:07:50.942Z,16.30
2019-05-18T22:10:25.705Z,16.30
2019-05-18T22:12:49.508Z,16.40
2019-05-18T22:15:18.035Z,16.30
2019-05-18T22:18:04.325Z,16.30
2019-05-18T22:20:34.266Z,16.30
2019-05-18T22:23:03.014Z,16.20
2019-05-18T22:25:31.855Z,16.20
2019-05-18T22:28:00.251Z,16.10
2019-05-18T22:30:29.707Z,16.10
2019-05-18T22:32:58.500Z,16.10
2019-05-18T22:35:26.894Z,16.10
2019-05-18T22:37:55.374Z,16.10
2019-05-18T22:40:23.818Z,16.00
2019-05-18T22:42:52.207Z,16.00
2019-05-18T22:45:20.599Z,16.00
2019-05-18T22:47:48.982Z,16.00
2019-05-18T22:50:17.454Z,15.90
2019-05-18T22:52:45.840Z,15.90
2019-05-18T22:55:14.376Z,15.90
2019-05-18T22:57:42.771Z,15.90
2019-05-18T23:00:11.792Z,15.80
2019-05-18T23:02:40.180Z,15.80
2019-05-18T23:05:08.651Z,15.80
2019-05-18T23:07:37.040Z,15.70
2019-05-18T23:10:06.500Z,15.60
2019-05-18T23:12:34.900Z,15.60
2019-05-18T23:15:03.968Z,15.50
2019-05-18T23:17:32.374Z,15.60
2019-05-18T23:20:00.840Z,15.50
2019-05-18T23:22:29.243Z,15.40
2019-05-18T23:24:57.636Z,15.40
2019-05-18T23:27:26.103Z,15.40
2019-05-18T23:29:54.560Z,15.40
2019-05-18T23:32:22.960Z,15.50
2019-05-18T23:34:51.340Z,15.40
2019-05-18T23:37:20.075Z,15.50
2019-05-18T23:39:48.496Z,15.40
2019-05-18T23:42:16.894Z,15.30
2019-05-18T23:44:45.292Z,15.30
2019-05-18T23:47:13.708Z,15.30
2019-05-18T23:49:42.120Z,15.30
2019-05-18T23:52:10.584Z,15.30
2019-05-18T23:54:38.981Z,15.30
2019-05-18T23:57:07.375Z,15.30
2019-05-18T23:59:35.767Z,15.30
